createdAt,value
2023-04-02T00:00:18.986Z,3.03
2023-04-02T00:03:03.518Z,3.10
2023-04-02T00:05:49.959Z,2.92
2023-04-02T00:08:26.069Z,3.65
2023-04-02T00:10:57.301Z,2.58
2023-04-02T00:13:52.584Z,2.15
2023-04-02T00:16:23.127Z,2.25
2023-04-02T00:18:55.582Z,2.00
2023-04-02T00:21:22.902Z,2.45
2023-04-02T00:23:49.224Z,2.88
2023-04-02T00:26:30.465Z,1.73
2023-04-02T00:29:00.478Z,2.40
2023-04-02T00:31:27.473Z,2.38
2023-04-02T00:33:53.871Z,2.00
2023-04-02T00:36:24.045Z,1.67
2023-04-02T00:38:58.719Z,1.77
2023-04-02T00:41:29.583Z,1.58
2023-04-02T00:43:57.218Z,1.70
2023-04-02T00:46:30.599Z,2.05
2023-04-02T00:49:08.538Z,1.95
2023-04-02T00:51:37.234Z,1.88
2023-04-02T00:54:06.335Z,2.10
2023-04-02T00:56:54.101Z,2.03
2023-04-02T00:59:33.656Z,1.92
2023-04-02T01:02:29.484Z,2.35
2023-04-02T01:05:10.984Z,1.67
2023-04-02T01:08:02.657Z,2.65
2023-04-02T01:10:46.454Z,2.13
2023-04-02T01:13:41.775Z,1.58
2023-04-02T01:16:13.276Z,1.40
2023-04-02T01:18:54.373Z,1.63
2023-04-02T01:21:44.549Z,1.80
2023-04-02T01:24:14.390Z,2.10
2023-04-02T01:26:46.297Z,1.88
2023-04-02T01:29:28.774Z,1.70
2023-04-02T01:31:58.377Z,2.45
2023-04-02T01:34:36.987Z,1.45
2023-04-02T01:37:21.950Z,2.20
2023-04-02T01:40:08.357Z,2.53
2023-04-02T01:42:39.800Z,2.20
2023-04-02T01:45:14.776Z,2.20
2023-04-02T01:47:42.941Z,2.47
2023-04-02T01:50:17.842Z,2.00
2023-04-02T01:52:45.755Z,2.22
2023-04-02T01:55:13.463Z,1.98
2023-04-02T01:57:43.800Z,1.90
2023-04-02T02:00:14.731Z,2.00
2023-04-02T02:02:42.599Z,1.73
2023-04-02T02:05:17.838Z,1.75
2023-04-02T02:07:47.244Z,1.88
2023-04-02T02:10:15.512Z,1.80
2023-04-02T02:12:43.315Z,1.60
2023-04-02T02:15:28.234Z,1.50
2023-04-02T02:17:59.449Z,1.92
2023-04-02T02:20:27.290Z,1.85
2023-04-02T02:22:54.031Z,1.70
2023-04-02T02:25:25.148Z,1.60
2023-04-02T02:28:09.817Z,0.98
2023-04-02T02:30:43.214Z,2.13
2023-04-02T02:33:25.985Z,1.35
2023-04-02T02:36:20.954Z,1.10
2023-04-02T02:38:51.841Z,1.70
2023-04-02T02:41:28.972Z,1.67
2023-04-02T02:44:04.240Z,1.83
2023-04-02T02:49:04.317Z,2.28
2023-04-02T02:51:43.270Z,1.83
2023-04-02T02:54:10.719Z,1.73
2023-04-02T02:56:41.993Z,2.17
2023-04-02T02:59:09.125Z,1.60
2023-04-02T03:01:35.686Z,1.90
2023-04-02T03:04:03.136Z,1.83
2023-04-02T03:06:29.866Z,1.48
2023-04-02T03:11:45.807Z,1.55
2023-04-02T03:14:21.692Z,1.80
2023-04-02T03:16:51.487Z,1.42
2023-04-02T03:19:35.350Z,1.48
2023-04-02T03:22:24.255Z,1.83
2023-04-02T03:25:03.173Z,2.03
2023-04-02T03:27:36.139Z,1.65
2023-04-02T03:30:28.158Z,2.05
2023-04-02T03:33:05.036Z,2.00
2023-04-02T03:35:39.049Z,1.90
2023-04-02T03:38:23.067Z,1.30
2023-04-02T03:40:59.140Z,1.50
2023-04-02T03:43:28.358Z,1.48
2023-04-02T03:46:25.390Z,1.27
2023-04-02T03:48:57.416Z,1.67
2023-04-02T03:51:34.062Z,1.55
2023-04-02T03:54:02.449Z,1.95
2023-04-02T03:56:39.488Z,1.45
2023-04-02T03:59:16.779Z,1.50
2023-04-02T04:01:47.771Z,1.40
2023-04-02T04:04:17.289Z,1.75
2023-04-02T04:06:45.438Z,1.60
2023-04-02T04:09:19.674Z,1.30
2023-04-02T04:11:49.555Z,1.52
2023-04-02T04:14:18.047Z,1.60
2023-04-02T04:16:53.740Z,1.25
2023-04-02T04:19:26.010Z,1.55
2023-04-02T04:21:57.727Z,1.60
2023-04-02T04:24:24.832Z,1.58
2023-04-02T04:27:04.987Z,1.40
2023-04-02T04:29:53.918Z,1.33
2023-04-02T04:32:41.317Z,1.50
2023-04-02T04:35:17.383Z,1.60
2023-04-02T04:37:49.392Z,1.30
2023-04-02T04:40:21.075Z,1.48
2023-04-02T04:42:48.343Z,1.10
2023-04-02T04:45:42.809Z,1.67
2023-04-02T04:48:27.248Z,2.13
2023-04-02T04:51:00.268Z,1.73
2023-04-02T04:53:28.661Z,1.88
2023-04-02T04:56:05.944Z,1.35
2023-04-02T04:58:56.611Z,1.73
2023-04-02T05:01:31.661Z,1.85
2023-04-02T05:04:18.172Z,1.80
2023-04-02T05:07:16.371Z,1.92
2023-04-02T05:09:44.096Z,1.58
2023-04-02T05:12:18.017Z,1.75
2023-04-02T05:14:50.260Z,1.42
2023-04-02T05:17:21.956Z,1.52
2023-04-02T05:19:53.746Z,1.50
2023-04-02T05:22:28.224Z,2.00
2023-04-02T05:25:16.778Z,1.05
2023-04-02T05:27:55.131Z,1.20
2023-04-02T05:30:30.342Z,1.35
2023-04-02T05:35:53.634Z,1.20
2023-04-02T05:38:22.659Z,1.08
2023-04-02T05:40:54.566Z,1.50
2023-04-02T05:43:24.930Z,1.20
2023-04-02T05:46:01.169Z,1.45
2023-04-02T05:48:32.448Z,1.48
2023-04-02T05:50:58.841Z,1.10
2023-04-02T05:53:33.564Z,1.30
2023-04-02T05:56:06.577Z,1.00
2023-04-02T05:58:49.414Z,1.17
2023-04-02T06:01:49.106Z,0.98
2023-04-02T06:04:18.407Z,1.10
2023-04-02T06:07:12.304Z,1.20
2023-04-02T06:09:43.802Z,1.63
2023-04-02T06:12:23.846Z,1.45
2023-04-02T06:14:50.522Z,1.17
2023-04-02T06:17:19.472Z,1.23
2023-04-02T06:19:47.489Z,1.00
2023-04-02T06:22:35.729Z,1.30
2023-04-02T06:25:22.978Z,1.10
2023-04-02T06:27:51.692Z,1.17
2023-04-02T06:30:24.988Z,1.10
2023-04-02T06:32:51.518Z,1.25
2023-04-02T06:35:17.694Z,1.15
2023-04-02T06:37:46.331Z,1.10
2023-04-02T06:40:41.518Z,1.00
2023-04-02T06:43:33.340Z,0.85
2023-04-02T06:48:37.102Z,0.73
2023-04-02T06:51:05.422Z,1.15
2023-04-02T06:53:42.073Z,1.42
2023-04-02T06:56:19.694Z,1.08
2023-04-02T06:58:46.296Z,0.75
2023-04-02T07:01:17.902Z,1.00
2023-04-02T07:03:44.191Z,0.80
2023-04-02T07:06:17.522Z,1.20
2023-04-02T07:08:44.342Z,1.00
2023-04-02T07:11:21.336Z,1.27
2023-04-02T07:13:48.934Z,0.95
2023-04-02T07:16:17.780Z,0.80
2023-04-02T07:18:49.689Z,1.10
2023-04-02T07:21:16.450Z,0.95
2023-04-02T07:23:42.901Z,0.70
2023-04-02T07:26:13.753Z,0.85
2023-04-02T07:28:40.140Z,1.15
2023-04-02T07:31:26.869Z,1.10
2023-04-02T07:33:57.610Z,1.10
2023-04-02T07:36:24.440Z,0.90
2023-04-02T07:38:52.446Z,1.00
2023-04-02T07:41:19.341Z,1.25
2023-04-02T07:43:45.783Z,1.20
2023-04-02T07:46:19.478Z,0.80
2023-04-02T07:48:46.445Z,1.85
2023-04-02T07:51:22.034Z,0.80
2023-04-02T07:53:55.361Z,1.17
2023-04-02T07:56:26.901Z,0.73
2023-04-02T07:58:52.988Z,0.90
2023-04-02T08:01:25.434Z,0.80
2023-04-02T08:03:55.536Z,1.00
2023-04-02T08:06:25.248Z,0.88
2023-04-02T08:08:51.976Z,0.90
2023-04-02T08:11:18.287Z,1.10
2023-04-02T08:13:44.720Z,1.00
2023-04-02T08:16:11.437Z,0.95
2023-04-02T08:18:41.205Z,0.88
2023-04-02T08:21:09.786Z,0.77
2023-04-02T08:23:36.988Z,1.10
2023-04-02T08:26:07.513Z,1.00
2023-04-02T08:28:37.340Z,0.95
2023-04-02T08:31:04.531Z,1.50
2023-04-02T08:33:32.200Z,1.00
2023-04-02T08:35:58.593Z,1.10
2023-04-02T08:38:25.250Z,1.20
2023-04-02T08:40:53.863Z,0.98
2023-04-02T08:43:32.239Z,1.00
2023-04-02T08:46:10.769Z,1.20
2023-04-02T08:48:42.699Z,1.15
2023-04-02T08:51:34.702Z,0.95
2023-04-02T08:54:29.015Z,1.10
2023-04-02T08:57:02.058Z,0.90
2023-04-02T09:00:11.084Z,1.02
2023-04-02T09:02:47.560Z,0.98
2023-04-02T09:05:20.775Z,0.80
2023-04-02T09:07:49.517Z,1.20
2023-04-02T09:10:16.423Z,0.90
2023-04-02T09:12:44.138Z,0.93
2023-04-02T09:15:13.970Z,1.27
2023-04-02T09:17:53.685Z,1.05
2023-04-02T09:20:28.944Z,0.85
2023-04-02T09:22:55.876Z,1.40
2023-04-02T09:25:28.524Z,1.00
2023-04-02T09:27:56.516Z,1.20
2023-04-02T09:30:31.453Z,1.20
2023-04-02T09:33:12.650Z,0.95
2023-04-02T09:35:52.089Z,0.90
2023-04-02T09:38:31.882Z,0.98
2023-04-02T09:41:09.329Z,0.90
2023-04-02T09:43:37.813Z,1.27
2023-04-02T09:46:06.218Z,1.27
2023-04-02T09:48:44.166Z,0.98
2023-04-02T09:51:19.971Z,0.95
2023-04-02T09:53:49.560Z,0.95
2023-04-02T09:56:24.066Z,1.10
2023-04-02T09:59:08.218Z,1.55
2023-04-02T10:01:37.161Z,0.98
2023-04-02T10:04:05.821Z,0.75
2023-04-02T10:06:34.928Z,1.10
2023-04-02T10:09:30.499Z,0.82
2023-04-02T10:11:59.438Z,0.98
2023-04-02T10:14:31.158Z,1.17
2023-04-02T10:17:01.005Z,1.17
2023-04-02T10:19:55.903Z,1.05
2023-04-02T10:22:22.937Z,0.80
2023-04-02T10:24:53.293Z,1.00
2023-04-02T10:27:30.965Z,1.10
2023-04-02T10:30:02.226Z,1.20
2023-04-02T10:33:12.392Z,1.38
2023-04-02T10:35:44.593Z,0.90
2023-04-02T10:38:31.589Z,0.93
2023-04-02T10:41:11.400Z,1.17
2023-04-02T10:43:54.841Z,0.80
2023-04-02T10:46:45.361Z,0.93
2023-04-02T10:49:27.710Z,1.10
2023-04-02T10:52:07.771Z,1.10
2023-04-02T10:54:43.130Z,0.93
2023-04-02T10:57:20.738Z,1.00
2023-04-02T10:59:50.634Z,1.30
2023-04-02T11:02:29.222Z,1.30
2023-04-02T11:04:59.320Z,1.20
2023-04-02T11:07:28.131Z,1.08
2023-04-02T11:09:56.170Z,1.30
2023-04-02T11:12:42.380Z,1.30
2023-04-02T11:15:16.506Z,1.45
2023-04-02T11:17:45.144Z,1.00
2023-04-02T11:20:48.581Z,1.13
2023-04-02T11:23:18.001Z,0.88
2023-04-02T11:25:45.188Z,0.85
2023-04-02T11:28:25.399Z,0.77
2023-04-02T11:30:51.781Z,0.93
2023-04-02T11:33:39.190Z,1.10
2023-04-02T11:36:45.099Z,1.08
2023-04-02T11:39:17.334Z,1.23
2023-04-02T11:42:04.418Z,1.00
2023-04-02T11:44:30.882Z,1.15
2023-04-02T11:47:22.975Z,1.13
2023-04-02T11:49:55.841Z,1.23
2023-04-02T11:52:26.012Z,1.27
2023-04-02T11:55:27.255Z,1.27
2023-04-02T11:58:41.184Z,0.95
2023-04-02T12:01:49.666Z,1.00
2023-04-02T12:04:15.849Z,1.05
2023-04-02T12:07:02.240Z,1.23
2023-04-02T12:09:46.477Z,1.02
2023-04-02T12:12:26.273Z,1.00
2023-04-02T12:14:54.862Z,1.25
2023-04-02T12:17:33.727Z,1.20
2023-04-02T12:20:04.357Z,1.25
2023-04-02T12:22:32.706Z,1.05
2023-04-02T12:25:02.257Z,1.13
2023-04-02T12:27:29.421Z,1.77
2023-04-02T12:30:10.940Z,1.00
2023-04-02T12:32:37.044Z,1.40
2023-04-02T12:35:04.835Z,1.00
2023-04-02T12:37:31.182Z,1.25
2023-04-02T12:40:02.048Z,0.95
2023-04-02T12:42:35.394Z,1.17
2023-04-02T12:45:04.505Z,1.30
2023-04-02T12:47:31.268Z,1.08
2023-04-02T12:49:59.032Z,1.00
2023-04-02T12:52:28.775Z,1.20
2023-04-02T12:54:58.185Z,0.85
2023-04-02T12:57:31.816Z,1.15
2023-04-02T13:00:24.345Z,0.98
2023-04-02T13:02:52.611Z,1.23
2023-04-02T13:05:42.150Z,1.20
2023-04-02T13:08:17.733Z,0.82
2023-04-02T13:10:44.508Z,1.40
2023-04-02T13:13:16.460Z,1.25
2023-04-02T13:15:44.893Z,1.00
2023-04-02T13:18:20.621Z,1.10
2023-04-02T13:21:02.001Z,0.95
2023-04-02T13:23:31.292Z,0.93
2023-04-02T13:26:00.449Z,1.02
2023-04-02T13:28:28.885Z,1.02
2023-04-02T13:30:55.157Z,0.70
2023-04-02T13:33:21.626Z,0.80
2023-04-02T13:35:48.506Z,1.23
2023-04-02T13:38:14.704Z,0.80
2023-04-02T13:40:41.202Z,0.90
2023-04-02T13:43:08.087Z,1.80
2023-04-02T13:45:37.939Z,1.00
2023-04-02T13:48:05.571Z,0.65
2023-04-02T13:50:36.628Z,0.82
2023-04-02T13:53:10.723Z,1.17
2023-04-02T13:55:41.130Z,1.00
2023-04-02T13:58:07.812Z,1.30
2023-04-02T14:00:37.193Z,0.95
2023-04-02T14:03:18.868Z,0.88
2023-04-02T14:06:08.014Z,1.05
2023-04-02T14:09:04.022Z,1.20
2023-04-02T14:11:36.374Z,1.02
2023-04-02T14:14:23.683Z,1.10
2023-04-02T14:17:02.331Z,1.13
2023-04-02T14:19:46.073Z,1.00
2023-04-02T14:22:34.238Z,1.10
2023-04-02T14:25:32.106Z,0.80
2023-04-02T14:28:01.947Z,0.98
2023-04-02T14:30:42.301Z,0.90
2023-04-02T14:33:25.000Z,0.85
2023-04-02T14:35:57.626Z,0.93
2023-04-02T14:38:34.607Z,0.90
2023-04-02T14:41:16.321Z,0.70
2023-04-02T14:43:55.221Z,0.70
2023-04-02T14:46:27.392Z,0.60
2023-04-02T14:49:08.692Z,1.10
2023-04-02T14:51:43.059Z,0.85
2023-04-02T14:54:42.292Z,0.93
2023-04-02T14:57:20.940Z,0.80
2023-04-02T14:59:58.607Z,1.05
2023-04-02T15:02:36.503Z,0.82
2023-04-02T15:05:27.755Z,0.70
2023-04-02T15:07:59.401Z,0.68
2023-04-02T15:10:32.077Z,0.93
2023-04-02T15:13:00.176Z,1.55
2023-04-02T15:15:45.347Z,0.88
2023-04-02T15:18:14.927Z,1.15
2023-04-02T15:20:56.951Z,0.93
2023-04-02T15:23:48.115Z,0.90
2023-04-02T15:26:21.076Z,0.88
2023-04-02T15:29:29.537Z,0.80
2023-04-02T15:32:35.171Z,1.15
2023-04-02T15:35:06.652Z,0.90
2023-04-02T15:37:35.652Z,0.88
2023-04-02T15:40:17.717Z,1.23
2023-04-02T15:43:18.281Z,0.70
2023-04-02T15:46:04.169Z,1.02
2023-04-02T15:49:03.059Z,1.05
2023-04-02T15:51:50.091Z,0.95
2023-04-02T15:54:37.325Z,0.93
2023-04-02T15:57:30.210Z,0.90
2023-04-02T16:00:19.541Z,0.90
2023-04-02T16:03:12.025Z,0.80
2023-04-02T16:06:10.366Z,0.85
2023-04-02T16:08:46.081Z,0.68
2023-04-02T16:11:14.402Z,1.00
2023-04-02T16:13:44.463Z,0.77
2023-04-02T16:16:30.424Z,1.10
2023-04-02T16:19:24.279Z,0.68
2023-04-02T16:22:01.994Z,0.80
2023-04-02T16:24:28.310Z,0.88
2023-04-02T16:27:03.278Z,0.90
2023-04-02T16:29:58.774Z,1.20
2023-04-02T16:32:41.498Z,1.58
2023-04-02T16:35:41.251Z,1.10
2023-04-02T16:41:10.051Z,0.80
2023-04-02T16:44:13.233Z,0.90
2023-04-02T16:47:06.486Z,0.95
2023-04-02T16:49:54.025Z,0.98
2023-04-02T16:52:28.909Z,1.05
2023-04-02T16:55:13.539Z,1.10
2023-04-02T16:57:50.413Z,1.20
2023-04-02T17:00:32.212Z,0.90
2023-04-02T17:03:22.880Z,1.38
2023-04-02T17:05:51.924Z,1.30
2023-04-02T17:08:24.006Z,1.02
2023-04-02T17:10:56.881Z,0.90
2023-04-02T17:13:27.224Z,1.10
2023-04-02T17:16:11.539Z,0.90
2023-04-02T17:18:44.012Z,0.90
2023-04-02T17:21:14.550Z,0.70
2023-04-02T17:23:55.715Z,1.20
2023-04-02T17:26:27.008Z,1.20
2023-04-02T17:28:57.514Z,1.13
2023-04-02T17:31:25.709Z,1.40
2023-04-02T17:33:52.257Z,1.10
2023-04-02T17:36:26.956Z,0.85
2023-04-02T17:39:07.079Z,0.90
2023-04-02T17:41:38.874Z,1.17
2023-04-02T17:44:19.195Z,0.88
2023-04-02T17:47:10.167Z,1.10
2023-04-02T17:49:42.508Z,1.35
2023-04-02T17:52:33.425Z,1.10
2023-04-02T17:55:07.673Z,1.65
2023-04-02T17:57:52.675Z,1.00
2023-04-02T18:00:27.562Z,1.23
2023-04-02T18:03:13.437Z,1.20
2023-04-02T18:05:45.348Z,1.20
2023-04-02T18:08:29.566Z,0.80
2023-04-02T18:11:22.449Z,1.48
2023-04-02T18:14:12.322Z,1.23
2023-04-02T18:17:17.332Z,1.30
2023-04-02T18:19:55.397Z,0.77
2023-04-02T18:22:32.879Z,1.25
2023-04-02T18:25:25.214Z,0.65
2023-04-02T18:28:24.395Z,1.23
2023-04-02T18:31:19.330Z,1.05
2023-04-02T18:34:00.615Z,0.73
2023-04-02T18:36:52.446Z,1.27
2023-04-02T18:39:36.614Z,1.13
2023-04-02T18:42:16.727Z,1.05
2023-04-02T18:45:27.137Z,1.20
2023-04-02T18:48:01.022Z,1.13
2023-04-02T18:50:38.715Z,1.17
2023-04-02T18:53:19.284Z,1.02
2023-04-02T18:55:49.454Z,1.52
2023-04-02T18:58:27.176Z,1.08
2023-04-02T19:00:56.241Z,1.48
2023-04-02T19:03:32.723Z,1.27
2023-04-02T19:06:04.641Z,1.10
2023-04-02T19:08:59.955Z,1.67
2023-04-02T19:11:30.750Z,1.27
2023-04-02T19:14:00.875Z,0.93
2023-04-02T19:16:47.193Z,1.23
2023-04-02T19:19:22.308Z,1.17
2023-04-02T19:21:51.092Z,1.20
2023-04-02T19:24:26.983Z,1.30
2023-04-02T19:27:28.646Z,2.20
2023-04-02T19:30:08.237Z,1.35
2023-04-02T19:33:00.998Z,0.93
2023-04-02T19:36:07.766Z,1.02
2023-04-02T19:38:48.905Z,1.55
2023-04-02T19:41:40.109Z,1.42
2023-04-02T19:44:11.189Z,1.40
2023-04-02T19:46:41.462Z,1.38
2023-04-02T19:49:46.011Z,1.20
2023-04-02T19:52:12.292Z,1.10
2023-04-02T19:54:38.594Z,1.55
2023-04-02T19:57:05.507Z,1.02
2023-04-02T19:59:31.885Z,1.08
2023-04-02T20:01:58.637Z,1.13
2023-04-02T20:04:25.163Z,1.52
2023-04-02T20:06:54.268Z,1.35
2023-04-02T20:09:24.200Z,1.20
2023-04-02T20:11:50.434Z,1.02
2023-04-02T20:14:17.664Z,1.40
2023-04-02T20:16:46.140Z,1.15
2023-04-02T20:19:15.431Z,1.30
2023-04-02T20:21:41.855Z,1.30
2023-04-02T20:24:08.444Z,1.25
2023-04-02T20:26:35.509Z,1.00
2023-04-02T20:29:02.646Z,1.23
2023-04-02T20:31:29.526Z,1.15
2023-04-02T20:34:01.147Z,1.27
2023-04-02T20:36:27.669Z,1.45
2023-04-02T20:38:59.607Z,0.93
2023-04-02T20:41:26.281Z,0.90
2023-04-02T20:43:56.940Z,1.13
2023-04-02T20:46:23.313Z,1.00
2023-04-02T20:48:57.347Z,1.02
2023-04-02T20:51:23.560Z,1.42
2023-04-02T20:53:49.669Z,1.33
2023-04-02T20:56:16.827Z,1.20
2023-04-02T20:58:46.696Z,1.13
2023-04-02T21:01:31.726Z,1.45
2023-04-02T21:04:00.235Z,1.00
2023-04-02T21:06:29.317Z,1.08
2023-04-02T21:08:56.799Z,1.20
2023-04-02T21:11:23.481Z,1.55
2023-04-02T21:13:49.949Z,1.48
2023-04-02T21:16:23.374Z,1.20
2023-04-02T21:18:53.084Z,0.82
2023-04-02T21:21:23.165Z,1.30
2023-04-02T21:23:55.054Z,1.30
2023-04-02T21:26:22.977Z,1.10
2023-04-02T21:28:49.305Z,1.38
2023-04-02T21:31:19.009Z,1.42
2023-04-02T21:33:47.413Z,1.75
2023-04-02T21:36:17.885Z,0.90
2023-04-02T21:38:46.068Z,1.33
2023-04-02T21:41:18.011Z,1.08
2023-04-02T21:43:45.772Z,1.48
2023-04-02T21:46:12.293Z,1.35
2023-04-02T21:48:40.151Z,1.13
2023-04-02T21:51:08.077Z,0.88
2023-04-02T21:53:34.251Z,1.00
2023-04-02T21:56:05.799Z,1.17
2023-04-02T21:58:32.044Z,0.93
2023-04-02T22:01:02.820Z,1.30
2023-04-02T22:03:32.116Z,1.25
2023-04-02T22:06:05.197Z,1.00
2023-04-02T22:08:31.299Z,1.10
2023-04-02T22:10:57.522Z,1.65
2023-04-02T22:13:26.035Z,1.38
2023-04-02T22:15:52.207Z,1.20
2023-04-02T22:18:18.456Z,1.30
2023-04-02T22:20:45.081Z,0.95
2023-04-02T22:23:11.257Z,1.27
2023-04-02T22:25:37.339Z,1.40
2023-04-02T22:28:03.486Z,1.00
2023-04-02T22:30:32.815Z,1.13
2023-04-02T22:32:59.149Z,1.00
2023-04-02T22:35:25.589Z,1.10
2023-04-02T22:37:53.401Z,1.50
2023-04-02T22:40:19.611Z,1.60
2023-04-02T22:42:47.394Z,1.00
2023-04-02T22:45:19.664Z,1.05
2023-04-02T22:47:46.094Z,1.00
2023-04-02T22:50:12.378Z,0.90
2023-04-02T22:52:41.583Z,1.30
2023-04-02T22:55:08.848Z,0.80
2023-04-02T22:57:35.537Z,1.00
2023-04-02T23:00:01.655Z,1.15
2023-04-02T23:02:27.822Z,0.98
2023-04-02T23:04:54.050Z,1.00
2023-04-02T23:07:21.306Z,1.20
2023-04-02T23:09:47.587Z,1.20
2023-04-02T23:12:13.801Z,1.02
2023-04-02T23:14:39.955Z,0.80
2023-04-02T23:17:06.274Z,1.00
2023-04-02T23:19:32.503Z,1.10
2023-04-02T23:24:28.283Z,1.25
2023-04-02T23:26:54.267Z,1.38
2023-04-02T23:29:20.519Z,1.10
2023-04-02T23:31:48.285Z,1.30
2023-04-02T23:34:14.474Z,1.33
2023-04-02T23:36:40.601Z,1.05
2023-04-02T23:39:10.084Z,1.00
2023-04-02T23:41:38.178Z,1.20
2023-04-02T23:44:04.861Z,1.02
2023-04-02T23:46:31.717Z,1.20
2023-04-02T23:48:59.075Z,1.17
2023-04-02T23:51:26.415Z,1.13
2023-04-02T23:53:59.126Z,1.15
2023-04-02T23:56:25.707Z,0.80
2023-04-02T23:58:51.932Z,1.08
